Racecast

Brandon Moore

Sacramento Speed Factory (CA) · - · STS · Compare head to head

Athlete rating
Races 77
Seasons 4 2013 — 2016
Speed rating — all races

Track & Field

TF speed rating

2016 TF

Sacramento Speed Factory (CA) · Grade -

Date Meet Event Result Place Rating Difficulty PR/SR Flags
2016-04-09 Contra Costa Cheetahs Invitational 100m 14.95 2nd · 2nd on team -0.017 ★PR SR
2016-04-09 Contra Costa Cheetahs Invitational 200m 31.77 4th · 2nd on team -0.017
2016-04-02 Sac Speed Factory USATF Youth T&F Meet 200m 31.31 15th · 3rd on team -0.033 SR
2016-04-02 Sac Speed Factory USATF Youth T&F Meet 400m 1:13.74 19th · 3rd on team -0.033 SR
2016-04-02 Sac Speed Factory USATF Youth T&F Meet 100m 15.4 29th · 2nd on team -0.033 SR

2015 TF

Sacramento Speed Factory (CA) · Grade -

Date Meet Event Result Place Rating Difficulty PR/SR Flags
2015-05-31 PAC (Pacific Association Youth Champions 400m 1:10.33 6th · 1st on team -0.024 ★PR SR
2015-05-31 PAC (Pacific Association Youth Champions 200m 30.27 24th · 4th on team -0.024 ★PR SR
2015-05-16 3M Track Club Track and Field Invitation 100m 15.29 23rd · 3rd on team -0.028
2015-05-16 3M Track Club Track and Field Invitation 200m 31.15 9th · 2nd on team -0.028
2015-05-16 3M Track Club Track and Field Invitation 400m 1:12.92 15th · 1st on team -0.028
2015-05-02 Running Rebels/Top Pacers Invitational 200m 31.02 8th · 2nd on team -0.038 PR SR
2015-05-02 Running Rebels/Top Pacers Invitational 100m 15.1 18th · 4th on team -0.038
2015-05-02 Running Rebels/Top Pacers Invitational 400m 1:14.52 9th · 1st on team -0.038
2015-04-11 Big Valley Track and Field Sectional Mee 100m 15.03 3rd · 3rd on team -0.027 PR SR
2015-04-11 Big Valley Track Club Invitational 100m 15.03 15th · 3rd on team -0.027
2015-04-11 Big Valley Track Club Invitational 400m 1:11.23 5th · 1st on team -0.027 PR SR
2015-04-11 Big Valley Track and Field Sectional Mee 400m 1:11.23 1st · 1st on team -0.027
2015-04-04 Sacramento Speed Factory 200m 32.08 7th · 2nd on team -0.033 PR SR
2015-04-04 Sacramento Speed Factory 400m 1:14.84 15th · 1st on team -0.033 PR SR
2015-04-04 Sacramento Speed Factory 100m 15.11 9th · 2nd on team -0.033 PR SR
2015-03-21 RPM Legacy lj 2.96m -0.020
2015-03-21 RPM Legacy 400m 1:15.25 17th · 2nd on team -0.020 SR
2015-03-21 RPM Legacy 100m 15.28 14th · 4th on team -0.020 PR SR

2014 TF

Sacramento Speed Factory (CA) · Grade -

Date Meet Event Result Place Rating Difficulty PR/SR Flags
2014-07-05 USATF JO Region 14 Championships (Top 5) 400m 1:15.04 1st · 1st on team -0.010 PR SR
2014-07-05 USATF JO Region 14 Championships (Top 5) 200m 33.63 3rd · 3rd on team -0.010
2014-06-20 USATF Pacific Assoc. Junior Olympics (Top 8) 200m 33.24 15th · 4th on team -0.031
2014-06-20 USATF Pacific Assoc. Junior Olympics (Top 8) 400m 1:17.08 10th · 1st on team -0.031 PR SR
2014-06-20 USATF Pacific Assoc. Junior Olympics (Top 8) 400m 1:19.24 13th · 2nd on team -0.031
2014-06-20 USATF Pacific Assoc. Junior Olympics (Top 8) 200m 32.72 11th · 3rd on team -0.031 PR SR
2014-05-31 Pacific Association Championships (PAC) 200m 32.89 17th · 6th on team -0.024 PR SR
2014-05-31 Pacific Association Championships (PAC) 100m 16.68 30th · 7th on team -0.024
2014-05-24 Central Valley Roadrunners 100m 15.83 8th · 5th on team -0.026 PR SR
2014-05-24 Central Valley Roadrunners 100m 16.27 16th · 10th on team -0.026
2014-05-24 Central Valley Roadrunners 200m 34.19 18th · 6th on team -0.026
2014-05-03 Hercules Running Rebels/Top Pacers Inv. 200m 35.72 5th · 5th on team -0.038
2014-05-03 Hercules Running Rebels/Top Pacers Inv. 100m 16.35 8th · 8th on team -0.038
2014-04-05 Sacramento Speed Showcase 100m 16.04 16th · 5th on team -0.033 PR SR
2014-04-05 Sacramento Speed Showcase 400m 1:18.44 1st · 1st on team -0.033
2014-04-05 Sacramento Speed Showcase 200m 34.04 4th · 3rd on team -0.033 SR
2014-03-22 RPM 400m 1:18.44 1st · 1st on team -0.012 PR SR
2014-03-22 RPM 100m 16.34 7th · 3rd on team -0.012 PR SR
2014-03-01 RETC Practice Meet 100m 16.9 2nd · 2nd on team -0.024 SR
2014-03-01 RETC Practice Meet 200m 36.7 2nd · 2nd on team -0.024 SR
2014-03-01 RETC Practice Meet 400m 1:22 4th · 2nd on team -0.024 PR SR

2013 TF

Sacramento Speed Factory (CA) · Grade -

Date Meet Event Result Place Rating Difficulty PR/SR Flags
2013-07-12 Track City Classic 100m 16.67 12th · 2nd on team -0.035
2013-07-12 Track City Classic 200m 34.6 11th · 2nd on team -0.035
2013-07-12 Track City Classic 200m 33.66 8th · 1st on team -0.035 PR SR
2013-07-12 Track City Classic 100m 16.47 10th · 1st on team -0.035 PR SR
2013-07-06 Region 14 Junior Olympics T&F (2-day) 200m 33.91 10th · 2nd on team -0.035 PR SR
2013-07-06 Region 14 Junior Olympics T&F (2-day) 100m 16.99 12th · 1st on team -0.035
2013-07-06 Region 14 Junior Olympics T&F (2-day) 100m 17.18 14th · 3rd on team -0.035
2013-07-06 Region 14 Junior Olympics T&F (2-day) 200m 34.97 14th · 3rd on team -0.035
2013-06-21 Pacific Association Junior Olympics (3-day) lj 2.04m -0.034
2013-06-21 Pacific Association Junior Olympics (3-day) 200m 34.46 7th · 1st on team -0.034 PR SR
2013-06-21 Pacific Association Junior Olympics (3-day) 100m 17.06 19th · 3rd on team -0.034
2013-06-21 Pacific Association Junior Olympics (3-day) 200m 35.1 12th · 3rd on team -0.034
2013-06-08 Pacific Association Youth Championship (PAC) - 2-day meet lj FOUL -0.024
2013-06-08 Pacific Association Youth Championship (PAC) - 2-day meet 200m 35.82 15th · 3rd on team -0.024
2013-06-08 Pacific Association Youth Championship (PAC) - 2-day meet 100m 17.14 19th · 5th on team -0.024 PR SR
2013-06-08 Pacific Association Youth Championship (PAC) - 2-day meet 100m 16.66 12th · 2nd on team -0.024 PR SR
2013-05-25 Central Valley Roadrunners (2-day meet) lj DNS -0.026
2013-05-11 Classic Track Club Relays lj 8-03.50 -0.011
2013-05-11 Classic Track Club Relays 200m 35.35 6th · 2nd on team -0.011 PR SR
2013-05-04 Hercules / Running Rebels (2-day) 400m 1:25.6 13th · 3rd on team -0.038 PR SR
2013-05-04 Hercules / Running Rebels (2-day) 200m 37.61 26th · 2nd on team -0.038 PR SR
2013-05-04 Hercules / Running Rebels (2-day) 100m 17.17 33rd · 3rd on team -0.038 PR SR
2013-04-27 Revolution Express Track Club 400m 1:30.51 15th · 4th on team -0.024 PR SR
2013-04-27 Revolution Express Track Club 200m 37.82 12th · 3rd on team -0.024 PR SR
2013-04-27 Revolution Express Track Club 100m 17.36 14th · 3rd on team -0.024 PR SR
2013-04-06 Sacramento Speed Showcase lj 6-11.00 -0.031
2013-04-06 Sacramento Speed Showcase 200m 38.99 15th · 2nd on team -0.031 PR SR
2013-04-06 Sacramento Speed Showcase 100m 17.86 16th · 2nd on team -0.031
2013-03-30 Stockton Saints 400m 1:39.6 31st · 4th on team -0.016
2013-03-30 Stockton Saints 100m 17.69 17th · 2nd on team -0.016 PR SR
2013-03-09 RETC home practice meet 100m 17.84 3rd · 2nd on team -0.024 PR SR
2013-03-09 RETC home practice meet 200m 41.74 4th · 2nd on team -0.024 PR SR
2013-03-09 RETC home practice meet 400m 1:38.14 3rd · 1st on team -0.024 PR SR